sensor_id;sensor_type;location;lat;lon;timestamp;temperature;humidity
33594;DHT22;19920;52.242;20.940;2024-03-22T00:00:30;9.70;99.90
33594;DHT22;19920;52.242;20.940;2024-03-22T00:02:56;9.70;99.90
33594;DHT22;19920;52.242;20.940;2024-03-22T00:05:21;9.70;99.90
33594;DHT22;19920;52.242;20.940;2024-03-22T00:07:47;9.70;99.90
33594;DHT22;19920;52.242;20.940;2024-03-22T00:10:13;9.70;99.90
33594;DHT22;19920;52.242;20.940;2024-03-22T00:12:39;9.80;99.90
33594;DHT22;19920;52.242;20.940;2024-03-22T00:15:05;9.80;99.90
33594;DHT22;19920;52.242;20.940;2024-03-22T00:17:30;9.90;99.90
33594;DHT22;19920;52.242;20.940;2024-03-22T00:19:56;9.90;99.90
33594;DHT22;19920;52.242;20.940;2024-03-22T00:22:22;9.80;99.90
33594;DHT22;19920;52.242;20.940;2024-03-22T00:24:47;9.80;99.90
33594;DHT22;19920;52.242;20.940;2024-03-22T00:27:13;9.90;99.90
33594;DHT22;19920;52.242;20.940;2024-03-22T00:29:38;9.90;99.90
33594;DHT22;19920;52.242;20.940;2024-03-22T00:32:04;9.80;99.90
33594;DHT22;19920;52.242;20.940;2024-03-22T00:34:30;9.80;99.90
33594;DHT22;19920;52.242;20.940;2024-03-22T00:36:55;9.90;99.90
33594;DHT22;19920;52.242;20.940;2024-03-22T00:39:21;9.90;99.90
33594;DHT22;19920;52.242;20.940;2024-03-22T00:41:46;9.80;99.90
33594;DHT22;19920;52.242;20.940;2024-03-22T00:44:12;9.80;99.90
33594;DHT22;19920;52.242;20.940;2024-03-22T00:46:37;9.80;99.90
33594;DHT22;19920;52.242;20.940;2024-03-22T00:49:03;9.80;99.90
33594;DHT22;19920;52.242;20.940;2024-03-22T00:51:28;9.80;99.90
33594;DHT22;19920;52.242;20.940;2024-03-22T00:53:54;9.80;99.90
33594;DHT22;19920;52.242;20.940;2024-03-22T00:56:19;9.70;99.90
33594;DHT22;19920;52.242;20.940;2024-03-22T00:58:45;9.70;99.90
33594;DHT22;19920;52.242;20.940;2024-03-22T01:01:10;9.60;99.90
33594;DHT22;19920;52.242;20.940;2024-03-22T01:03:36;9.60;99.90
33594;DHT22;19920;52.242;20.940;2024-03-22T01:06:01;9.60;99.90
33594;DHT22;19920;52.242;20.940;2024-03-22T01:08:27;9.60;99.90
33594;DHT22;19920;52.242;20.940;2024-03-22T01:10:53;9.60;99.90
33594;DHT22;19920;52.242;20.940;2024-03-22T01:13:18;9.60;99.90
33594;DHT22;19920;52.242;20.940;2024-03-22T01:15:44;9.70;99.90
33594;DHT22;19920;52.242;20.940;2024-03-22T01:18:11;9.70;99.90
33594;DHT22;19920;52.242;20.940;2024-03-22T01:20:37;9.60;99.90
33594;DHT22;19920;52.242;20.940;2024-03-22T01:23:02;9.50;99.90
33594;DHT22;19920;52.242;20.940;2024-03-22T01:25:28;9.40;99.90
33594;DHT22;19920;52.242;20.940;2024-03-22T01:27:53;9.40;99.90
33594;DHT22;19920;52.242;20.940;2024-03-22T01:30:19;9.40;99.90
33594;DHT22;19920;52.242;20.940;2024-03-22T01:32:44;9.40;99.90
33594;DHT22;19920;52.242;20.940;2024-03-22T01:35:10;9.40;99.90
33594;DHT22;19920;52.242;20.940;2024-03-22T01:37:35;9.40;99.90
33594;DHT22;19920;52.242;20.940;2024-03-22T01:40:01;9.40;99.90
33594;DHT22;19920;52.242;20.940;2024-03-22T01:42:26;9.40;99.90
33594;DHT22;19920;52.242;20.940;2024-03-22T01:44:52;9.40;99.90
33594;DHT22;19920;52.242;20.940;2024-03-22T01:47:17;9.30;99.90
33594;DHT22;19920;52.242;20.940;2024-03-22T01:49:43;9.30;99.90
33594;DHT22;19920;52.242;20.940;2024-03-22T01:52:09;9.30;99.90
33594;DHT22;19920;52.242;20.940;2024-03-22T01:54:34;9.20;99.90
33594;DHT22;19920;52.242;20.940;2024-03-22T01:57:00;9.20;99.90
33594;DHT22;19920;52.242;20.940;2024-03-22T01:59:26;9.30;99.90
33594;DHT22;19920;52.242;20.940;2024-03-22T02:01:53;9.20;99.90
33594;DHT22;19920;52.242;20.940;2024-03-22T02:04:18;9.20;99.90
33594;DHT22;19920;52.242;20.940;2024-03-22T02:06:44;9.30;99.90
33594;DHT22;19920;52.242;20.940;2024-03-22T02:09:10;9.30;99.90
33594;DHT22;19920;52.242;20.940;2024-03-22T02:11:36;9.30;99.90
33594;DHT22;19920;52.242;20.940;2024-03-22T02:14:01;9.30;99.90
33594;DHT22;19920;52.242;20.940;2024-03-22T02:16:27;9.30;99.90
33594;DHT22;19920;52.242;20.940;2024-03-22T02:18:52;9.30;99.90
33594;DHT22;19920;52.242;20.940;2024-03-22T02:21:18;9.20;99.90
33594;DHT22;19920;52.242;20.940;2024-03-22T02:23:43;9.30;99.90
33594;DHT22;19920;52.242;20.940;2024-03-22T02:26:09;9.30;99.90
33594;DHT22;19920;52.242;20.940;2024-03-22T02:28:35;9.40;99.90
33594;DHT22;19920;52.242;20.940;2024-03-22T02:31:04;9.40;99.90
33594;DHT22;19920;52.242;20.940;2024-03-22T02:33:29;9.40;99.90
33594;DHT22;19920;52.242;20.940;2024-03-22T02:35:55;9.40;99.90
33594;DHT22;19920;52.242;20.940;2024-03-22T02:38:20;9.40;99.90
33594;DHT22;19920;52.242;20.940;2024-03-22T02:40:46;9.40;99.90
33594;DHT22;19920;52.242;20.940;2024-03-22T02:43:12;9.30;99.90
33594;DHT22;19920;52.242;20.940;2024-03-22T02:45:38;9.30;99.90
33594;DHT22;19920;52.242;20.940;2024-03-22T02:48:03;9.30;99.90
33594;DHT22;19920;52.242;20.940;2024-03-22T02:50:35;9.30;99.90
33594;DHT22;19920;52.242;20.940;2024-03-22T02:53:01;9.40;99.90
33594;DHT22;19920;52.242;20.940;2024-03-22T02:55:27;9.40;99.90
33594;DHT22;19920;52.242;20.940;2024-03-22T02:57:53;9.30;99.90
33594;DHT22;19920;52.242;20.940;2024-03-22T03:00:18;9.30;99.90
33594;DHT22;19920;52.242;20.940;2024-03-22T03:02:45;9.30;99.90
33594;DHT22;19920;52.242;20.940;2024-03-22T03:05:10;9.30;99.90
33594;DHT22;19920;52.242;20.940;2024-03-22T03:07:36;9.40;99.90
33594;DHT22;19920;52.242;20.940;2024-03-22T03:10:02;9.40;99.90
33594;DHT22;19920;52.242;20.940;2024-03-22T03:12:27;9.30;99.90
33594;DHT22;19920;52.242;20.940;2024-03-22T03:14:53;9.30;99.90
33594;DHT22;19920;52.242;20.940;2024-03-22T03:17:18;9.30;99.90
33594;DHT22;19920;52.242;20.940;2024-03-22T03:19:44;9.30;99.90
33594;DHT22;19920;52.242;20.940;2024-03-22T03:22:09;9.30;99.90
33594;DHT22;19920;52.242;20.940;2024-03-22T03:24:35;9.30;99.90
33594;DHT22;19920;52.242;20.940;2024-03-22T03:27:00;9.20;99.90
33594;DHT22;19920;52.242;20.940;2024-03-22T03:29:26;9.20;99.90
33594;DHT22;19920;52.242;20.940;2024-03-22T03:31:51;9.10;99.90
33594;DHT22;19920;52.242;20.940;2024-03-22T03:34:17;9.10;99.90
33594;DHT22;19920;52.242;20.940;2024-03-22T03:36:42;9.10;99.90
33594;DHT22;19920;52.242;20.940;2024-03-22T03:39:08;9.00;99.90
33594;DHT22;19920;52.242;20.940;2024-03-22T03:41:33;9.00;99.90
33594;DHT22;19920;52.242;20.940;2024-03-22T03:43:59;9.00;99.90
33594;DHT22;19920;52.242;20.940;2024-03-22T03:46:24;8.90;99.90
33594;DHT22;19920;52.242;20.940;2024-03-22T03:48:50;8.90;99.90
33594;DHT22;19920;52.242;20.940;2024-03-22T03:51:15;8.80;99.90
33594;DHT22;19920;52.242;20.940;2024-03-22T03:53:41;8.70;99.90
33594;DHT22;19920;52.242;20.940;2024-03-22T03:56:06;8.70;99.90
33594;DHT22;19920;52.242;20.940;2024-03-22T03:58:32;8.70;99.90
33594;DHT22;19920;52.242;20.940;2024-03-22T04:00:57;8.70;99.90
33594;DHT22;19920;52.242;20.940;2024-03-22T04:03:23;8.60;99.90
33594;DHT22;19920;52.242;20.940;2024-03-22T04:05:58;8.40;99.90
33594;DHT22;19920;52.242;20.940;2024-03-22T04:08:26;8.40;99.90
33594;DHT22;19920;52.242;20.940;2024-03-22T04:10:55;8.30;99.90
33594;DHT22;19920;52.242;20.940;2024-03-22T04:13:24;8.20;99.90
33594;DHT22;19920;52.242;20.940;2024-03-22T04:15:50;8.20;99.90
33594;DHT22;19920;52.242;20.940;2024-03-22T04:18:15;8.10;99.90
33594;DHT22;19920;52.242;20.940;2024-03-22T04:20:41;8.00;99.90
33594;DHT22;19920;52.242;20.940;2024-03-22T04:23:06;8.10;99.90
33594;DHT22;19920;52.242;20.940;2024-03-22T04:25:32;8.10;99.90
33594;DHT22;19920;52.242;20.940;2024-03-22T04:27:57;8.00;99.90
33594;DHT22;19920;52.242;20.940;2024-03-22T04:30:23;8.10;99.90
33594;DHT22;19920;52.242;20.940;2024-03-22T04:32:48;8.00;99.90
33594;DHT22;19920;52.242;20.940;2024-03-22T04:35:14;8.00;99.90
33594;DHT22;19920;52.242;20.940;2024-03-22T04:37:39;8.00;99.90
33594;DHT22;19920;52.242;20.940;2024-03-22T04:40:05;7.90;99.90
33594;DHT22;19920;52.242;20.940;2024-03-22T04:42:31;7.90;99.90
33594;DHT22;19920;52.242;20.940;2024-03-22T04:44:56;7.90;99.90
33594;DHT22;19920;52.242;20.940;2024-03-22T04:47:23;7.90;99.90
33594;DHT22;19920;52.242;20.940;2024-03-22T04:49:48;7.90;99.90
33594;DHT22;19920;52.242;20.940;2024-03-22T04:52:14;7.90;99.90
33594;DHT22;19920;52.242;20.940;2024-03-22T04:54:39;7.90;99.90
33594;DHT22;19920;52.242;20.940;2024-03-22T04:57:05;7.90;99.90
33594;DHT22;19920;52.242;20.940;2024-03-22T04:59:30;7.90;99.90
33594;DHT22;19920;52.242;20.940;2024-03-22T05:01:56;7.90;99.90
33594;DHT22;19920;52.242;20.940;2024-03-22T05:04:21;8.00;99.90
33594;DHT22;19920;52.242;20.940;2024-03-22T05:06:47;8.10;99.90
33594;DHT22;19920;52.242;20.940;2024-03-22T05:09:12;8.00;99.90
33594;DHT22;19920;52.242;20.940;2024-03-22T05:11:38;8.00;99.90
33594;DHT22;19920;52.242;20.940;2024-03-22T05:14:03;8.00;99.90
33594;DHT22;19920;52.242;20.940;2024-03-22T05:16:29;8.00;99.90
33594;DHT22;19920;52.242;20.940;2024-03-22T05:18:54;8.00;99.90
33594;DHT22;19920;52.242;20.940;2024-03-22T05:21:20;8.00;99.90
33594;DHT22;19920;52.242;20.940;2024-03-22T05:23:46;8.00;99.90
33594;DHT22;19920;52.242;20.940;2024-03-22T05:26:11;8.10;99.90
33594;DHT22;19920;52.242;20.940;2024-03-22T05:28:37;8.10;99.90
33594;DHT22;19920;52.242;20.940;2024-03-22T05:31:02;8.20;99.90
33594;DHT22;19920;52.242;20.940;2024-03-22T05:33:28;8.30;99.90
33594;DHT22;19920;52.242;20.940;2024-03-22T05:35:53;8.20;99.90
33594;DHT22;19920;52.242;20.940;2024-03-22T05:38:19;8.30;99.90
33594;DHT22;19920;52.242;20.940;2024-03-22T05:40:44;8.30;99.90
33594;DHT22;19920;52.242;20.940;2024-03-22T05:43:13;8.20;99.90
33594;DHT22;19920;52.242;20.940;2024-03-22T05:45:38;8.20;99.90
33594;DHT22;19920;52.242;20.940;2024-03-22T05:48:04;8.30;99.90
33594;DHT22;19920;52.242;20.940;2024-03-22T05:50:29;8.20;99.90
33594;DHT22;19920;52.242;20.940;2024-03-22T05:52:55;8.30;99.90
33594;DHT22;19920;52.242;20.940;2024-03-22T05:55:20;8.30;99.90
33594;DHT22;19920;52.242;20.940;2024-03-22T05:57:46;8.30;99.90
33594;DHT22;19920;52.242;20.940;2024-03-22T06:00:11;8.30;99.90
33594;DHT22;19920;52.242;20.940;2024-03-22T06:02:38;8.30;99.90
33594;DHT22;19920;52.242;20.940;2024-03-22T06:05:04;8.40;99.90
33594;DHT22;19920;52.242;20.940;2024-03-22T06:07:30;8.30;99.90
33594;DHT22;19920;52.242;20.940;2024-03-22T06:10:00;8.30;99.90
33594;DHT22;19920;52.242;20.940;2024-03-22T06:12:26;8.30;99.90
33594;DHT22;19920;52.242;20.940;2024-03-22T06:14:51;8.40;99.90
33594;DHT22;19920;52.242;20.940;2024-03-22T06:17:17;8.50;99.90
33594;DHT22;19920;52.242;20.940;2024-03-22T06:19:42;8.50;99.90
33594;DHT22;19920;52.242;20.940;2024-03-22T06:22:08;8.40;99.90
33594;DHT22;19920;52.242;20.940;2024-03-22T06:24:33;8.40;99.90
33594;DHT22;19920;52.242;20.940;2024-03-22T06:26:59;8.40;99.90
33594;DHT22;19920;52.242;20.940;2024-03-22T06:29:25;8.30;99.90
33594;DHT22;19920;52.242;20.940;2024-03-22T06:31:51;8.30;99.90
33594;DHT22;19920;52.242;20.940;2024-03-22T06:34:17;8.30;99.90
33594;DHT22;19920;52.242;20.940;2024-03-22T06:36:43;8.30;99.90
33594;DHT22;19920;52.242;20.940;2024-03-22T06:39:09;8.30;99.90
33594;DHT22;19920;52.242;20.940;2024-03-22T06:41:35;8.20;99.90
33594;DHT22;19920;52.242;20.940;2024-03-22T06:44:01;8.20;99.90
33594;DHT22;19920;52.242;20.940;2024-03-22T06:46:27;8.30;99.90
33594;DHT22;19920;52.242;20.940;2024-03-22T06:48:53;8.30;99.90
33594;DHT22;19920;52.242;20.940;2024-03-22T06:51:18;8.30;99.90
33594;DHT22;19920;52.242;20.940;2024-03-22T06:53:44;8.40;99.90
33594;DHT22;19920;52.242;20.940;2024-03-22T06:56:11;8.50;99.90
33594;DHT22;19920;52.242;20.940;2024-03-22T06:58:39;8.50;99.90
33594;DHT22;19920;52.242;20.940;2024-03-22T07:01:05;8.60;99.90
33594;DHT22;19920;52.242;20.940;2024-03-22T07:03:31;8.70;99.90
33594;DHT22;19920;52.242;20.940;2024-03-22T07:05:56;8.70;99.90
33594;DHT22;19920;52.242;20.940;2024-03-22T07:08:23;8.60;99.90
33594;DHT22;19920;52.242;20.940;2024-03-22T07:10:49;8.50;99.90
33594;DHT22;19920;52.242;20.940;2024-03-22T07:13:14;8.60;99.90
33594;DHT22;19920;52.242;20.940;2024-03-22T07:15:40;8.60;99.90
33594;DHT22;19920;52.242;20.940;2024-03-22T07:18:05;8.60;99.90
33594;DHT22;19920;52.242;20.940;2024-03-22T07:20:31;8.60;99.90
33594;DHT22;19920;52.242;20.940;2024-03-22T07:22:56;8.70;99.90
33594;DHT22;19920;52.242;20.940;2024-03-22T07:25:22;8.50;99.90
33594;DHT22;19920;52.242;20.940;2024-03-22T07:27:47;8.50;99.90
33594;DHT22;19920;52.242;20.940;2024-03-22T07:30:14;8.50;99.90
33594;DHT22;19920;52.242;20.940;2024-03-22T07:32:40;8.50;99.90
33594;DHT22;19920;52.242;20.940;2024-03-22T07:35:05;8.60;99.90
33594;DHT22;19920;52.242;20.940;2024-03-22T07:37:32;8.50;99.90
33594;DHT22;19920;52.242;20.940;2024-03-22T07:39:58;8.50;99.90
33594;DHT22;19920;52.242;20.940;2024-03-22T07:42:23;8.50;99.90
33594;DHT22;19920;52.242;20.940;2024-03-22T07:44:49;8.50;99.90
33594;DHT22;19920;52.242;20.940;2024-03-22T07:47:14;8.50;99.90
33594;DHT22;19920;52.242;20.940;2024-03-22T07:49:40;8.60;99.90
33594;DHT22;19920;52.242;20.940;2024-03-22T07:52:05;8.70;99.90
33594;DHT22;19920;52.242;20.940;2024-03-22T07:54:31;8.70;99.90
33594;DHT22;19920;52.242;20.940;2024-03-22T07:56:57;8.80;99.90
33594;DHT22;19920;52.242;20.940;2024-03-22T07:59:23;8.90;99.90
33594;DHT22;19920;52.242;20.940;2024-03-22T08:01:48;8.90;99.90
33594;DHT22;19920;52.242;20.940;2024-03-22T08:04:13;8.90;99.90
33594;DHT22;19920;52.242;20.940;2024-03-22T08:06:40;8.90;99.90
33594;DHT22;19920;52.242;20.940;2024-03-22T08:09:05;8.80;99.90
33594;DHT22;19920;52.242;20.940;2024-03-22T08:11:31;8.90;99.90
33594;DHT22;19920;52.242;20.940;2024-03-22T08:13:56;8.90;99.90
33594;DHT22;19920;52.242;20.940;2024-03-22T08:16:27;9.00;99.90
33594;DHT22;19920;52.242;20.940;2024-03-22T08:19:00;9.00;99.90
33594;DHT22;19920;52.242;20.940;2024-03-22T08:21:25;9.10;99.90
33594;DHT22;19920;52.242;20.940;2024-03-22T08:23:51;9.10;99.90
33594;DHT22;19920;52.242;20.940;2024-03-22T08:26:17;9.20;99.90
33594;DHT22;19920;52.242;20.940;2024-03-22T08:28:43;9.20;99.90
33594;DHT22;19920;52.242;20.940;2024-03-22T08:31:09;9.30;99.90
33594;DHT22;19920;52.242;20.940;2024-03-22T08:33:34;9.30;99.90
33594;DHT22;19920;52.242;20.940;2024-03-22T08:36:00;9.40;99.90
33594;DHT22;19920;52.242;20.940;2024-03-22T08:38:26;9.30;99.90
33594;DHT22;19920;52.242;20.940;2024-03-22T08:40:52;9.20;99.90
33594;DHT22;19920;52.242;20.940;2024-03-22T08:43:17;9.10;99.90
33594;DHT22;19920;52.242;20.940;2024-03-22T08:45:43;9.30;99.90
33594;DHT22;19920;52.242;20.940;2024-03-22T08:48:09;9.30;99.90
33594;DHT22;19920;52.242;20.940;2024-03-22T08:50:34;9.40;99.90
33594;DHT22;19920;52.242;20.940;2024-03-22T08:53:00;9.50;99.90
33594;DHT22;19920;52.242;20.940;2024-03-22T08:55:28;9.50;99.90
33594;DHT22;19920;52.242;20.940;2024-03-22T08:57:54;9.40;99.90
33594;DHT22;19920;52.242;20.940;2024-03-22T09:00:19;9.60;99.90
33594;DHT22;19920;52.242;20.940;2024-03-22T09:02:45;9.40;99.90
33594;DHT22;19920;52.242;20.940;2024-03-22T09:05:10;9.50;99.90
33594;DHT22;19920;52.242;20.940;2024-03-22T09:07:36;9.60;99.90
33594;DHT22;19920;52.242;20.940;2024-03-22T09:10:02;9.80;99.90
33594;DHT22;19920;52.242;20.940;2024-03-22T09:12:27;9.80;99.90
33594;DHT22;19920;52.242;20.940;2024-03-22T09:14:53;9.90;99.90
33594;DHT22;19920;52.242;20.940;2024-03-22T09:17:19;9.90;99.90
33594;DHT22;19920;52.242;20.940;2024-03-22T09:19:44;10.00;99.90
33594;DHT22;19920;52.242;20.940;2024-03-22T09:22:10;10.00;99.90
33594;DHT22;19920;52.242;20.940;2024-03-22T09:24:35;10.00;99.90
33594;DHT22;19920;52.242;20.940;2024-03-22T09:27:01;10.00;99.90
33594;DHT22;19920;52.242;20.940;2024-03-22T09:29:30;10.00;99.90
33594;DHT22;19920;52.242;20.940;2024-03-22T09:31:56;10.10;99.90
33594;DHT22;19920;52.242;20.940;2024-03-22T09:34:21;9.90;99.90
33594;DHT22;19920;52.242;20.940;2024-03-22T09:36:47;9.90;99.90
33594;DHT22;19920;52.242;20.940;2024-03-22T09:39:12;10.00;99.90
33594;DHT22;19920;52.242;20.940;2024-03-22T09:41:40;10.00;99.90
33594;DHT22;19920;52.242;20.940;2024-03-22T09:44:07;10.10;99.90
33594;DHT22;19920;52.242;20.940;2024-03-22T09:46:35;10.10;99.90
33594;DHT22;19920;52.242;20.940;2024-03-22T09:49:01;10.10;99.90
33594;DHT22;19920;52.242;20.940;2024-03-22T09:51:27;10.10;99.90
33594;DHT22;19920;52.242;20.940;2024-03-22T09:53:52;10.10;99.90
33594;DHT22;19920;52.242;20.940;2024-03-22T09:56:19;10.10;99.90
33594;DHT22;19920;52.242;20.940;2024-03-22T09:58:45;10.20;99.90
33594;DHT22;19920;52.242;20.940;2024-03-22T10:01:11;10.20;99.90
33594;DHT22;19920;52.242;20.940;2024-03-22T10:03:37;10.00;99.90
33594;DHT22;19920;52.242;20.940;2024-03-22T10:06:03;10.20;99.90
33594;DHT22;19920;52.242;20.940;2024-03-22T10:08:29;10.00;99.90
33594;DHT22;19920;52.242;20.940;2024-03-22T10:10:55;10.10;99.90
33594;DHT22;19920;52.242;20.940;2024-03-22T10:13:20;10.10;99.90
33594;DHT22;19920;52.242;20.940;2024-03-22T10:15:46;10.00;99.90
33594;DHT22;19920;52.242;20.940;2024-03-22T10:18:11;10.00;99.90
33594;DHT22;19920;52.242;20.940;2024-03-22T10:20:37;10.00;99.90
33594;DHT22;19920;52.242;20.940;2024-03-22T10:23:03;10.10;99.90
33594;DHT22;19920;52.242;20.940;2024-03-22T10:25:29;10.10;99.90
33594;DHT22;19920;52.242;20.940;2024-03-22T10:27:55;10.10;99.90
33594;DHT22;19920;52.242;20.940;2024-03-22T10:30:20;10.00;99.90
33594;DHT22;19920;52.242;20.940;2024-03-22T10:32:46;10.00;99.90
33594;DHT22;19920;52.242;20.940;2024-03-22T10:35:16;9.90;99.90
33594;DHT22;19920;52.242;20.940;2024-03-22T10:37:42;9.80;99.90
33594;DHT22;19920;52.242;20.940;2024-03-22T10:40:08;9.80;99.90
33594;DHT22;19920;52.242;20.940;2024-03-22T10:42:38;9.90;99.90
33594;DHT22;19920;52.242;20.940;2024-03-22T10:45:13;9.80;99.90
33594;DHT22;19920;52.242;20.940;2024-03-22T10:47:38;9.90;99.90
33594;DHT22;19920;52.242;20.940;2024-03-22T10:52:32;9.90;99.90
33594;DHT22;19920;52.242;20.940;2024-03-22T10:54:58;10.00;99.90
33594;DHT22;19920;52.242;20.940;2024-03-22T10:57:24;10.00;99.90
33594;DHT22;19920;52.242;20.940;2024-03-22T10:59:49;10.00;99.90
33594;DHT22;19920;52.242;20.940;2024-03-22T11:02:19;10.00;99.90
33594;DHT22;19920;52.242;20.940;2024-03-22T11:04:53;10.20;99.90
33594;DHT22;19920;52.242;20.940;2024-03-22T11:07:21;10.20;99.90
33594;DHT22;19920;52.242;20.940;2024-03-22T11:09:51;10.40;99.90
33594;DHT22;19920;52.242;20.940;2024-03-22T11:12:17;10.60;99.90
33594;DHT22;19920;52.242;20.940;2024-03-22T11:14:44;10.80;99.90
33594;DHT22;19920;52.242;20.940;2024-03-22T11:17:09;10.90;99.90
33594;DHT22;19920;52.242;20.940;2024-03-22T11:19:36;11.00;99.90
33594;DHT22;19920;52.242;20.940;2024-03-22T11:22:06;11.00;99.90
33594;DHT22;19920;52.242;20.940;2024-03-22T11:24:33;11.00;99.90
33594;DHT22;19920;52.242;20.940;2024-03-22T11:26:58;10.90;99.90
33594;DHT22;19920;52.242;20.940;2024-03-22T11:29:24;10.70;99.90
33594;DHT22;19920;52.242;20.940;2024-03-22T11:31:49;10.60;99.90
33594;DHT22;19920;52.242;20.940;2024-03-22T11:34:15;10.50;99.90
33594;DHT22;19920;52.242;20.940;2024-03-22T11:36:41;10.40;99.90
33594;DHT22;19920;52.242;20.940;2024-03-22T11:39:06;10.40;99.90
33594;DHT22;19920;52.242;20.940;2024-03-22T11:41:32;10.30;99.90
33594;DHT22;19920;52.242;20.940;2024-03-22T11:43:59;10.40;99.90
33594;DHT22;19920;52.242;20.940;2024-03-22T11:46:25;10.30;99.90
33594;DHT22;19920;52.242;20.940;2024-03-22T11:48:55;10.30;99.90
33594;DHT22;19920;52.242;20.940;2024-03-22T11:51:20;10.20;99.90
33594;DHT22;19920;52.242;20.940;2024-03-22T11:53:52;10.10;99.90
33594;DHT22;19920;52.242;20.940;2024-03-22T11:56:21;10.30;99.90
33594;DHT22;19920;52.242;20.940;2024-03-22T11:58:47;10.50;99.90
33594;DHT22;19920;52.242;20.940;2024-03-22T12:01:16;10.70;99.90
33594;DHT22;19920;52.242;20.940;2024-03-22T12:03:45;10.60;99.90
33594;DHT22;19920;52.242;20.940;2024-03-22T12:06:12;10.70;99.90
33594;DHT22;19920;52.242;20.940;2024-03-22T12:08:38;10.80;99.90
33594;DHT22;19920;52.242;20.940;2024-03-22T12:11:08;10.80;99.90
33594;DHT22;19920;52.242;20.940;2024-03-22T12:13:34;10.80;99.90
33594;DHT22;19920;52.242;20.940;2024-03-22T12:16:00;10.80;99.90
33594;DHT22;19920;52.242;20.940;2024-03-22T12:18:26;10.60;99.90
33594;DHT22;19920;52.242;20.940;2024-03-22T12:20:52;10.50;99.90
33594;DHT22;19920;52.242;20.940;2024-03-22T12:23:18;10.50;99.90
33594;DHT22;19920;52.242;20.940;2024-03-22T12:25:43;10.60;99.90
33594;DHT22;19920;52.242;20.940;2024-03-22T12:28:09;10.40;99.90
33594;DHT22;19920;52.242;20.940;2024-03-22T12:30:34;10.50;99.90
33594;DHT22;19920;52.242;20.940;2024-03-22T12:33:00;10.60;99.90
33594;DHT22;19920;52.242;20.940;2024-03-22T12:35:26;10.60;99.90
33594;DHT22;19920;52.242;20.940;2024-03-22T12:37:51;10.70;99.90
33594;DHT22;19920;52.242;20.940;2024-03-22T12:40:17;10.70;99.90
33594;DHT22;19920;52.242;20.940;2024-03-22T12:42:42;10.90;99.90
33594;DHT22;19920;52.242;20.940;2024-03-22T12:45:08;10.90;99.90
33594;DHT22;19920;52.242;20.940;2024-03-22T12:47:33;10.80;99.90
33594;DHT22;19920;52.242;20.940;2024-03-22T12:49:59;10.90;99.90
33594;DHT22;19920;52.242;20.940;2024-03-22T12:52:25;10.90;99.90
33594;DHT22;19920;52.242;20.940;2024-03-22T12:54:50;11.00;99.90
33594;DHT22;19920;52.242;20.940;2024-03-22T12:57:16;10.70;99.90
33594;DHT22;19920;52.242;20.940;2024-03-22T12:59:41;10.70;99.90
33594;DHT22;19920;52.242;20.940;2024-03-22T13:02:07;10.60;99.90
33594;DHT22;19920;52.242;20.940;2024-03-22T13:04:33;10.70;99.90
33594;DHT22;19920;52.242;20.940;2024-03-22T13:06:59;10.70;99.90
33594;DHT22;19920;52.242;20.940;2024-03-22T13:09:24;10.70;99.90
33594;DHT22;19920;52.242;20.940;2024-03-22T13:11:50;10.70;99.90
33594;DHT22;19920;52.242;20.940;2024-03-22T13:14:15;10.90;99.90
33594;DHT22;19920;52.242;20.940;2024-03-22T13:16:41;11.10;99.90
33594;DHT22;19920;52.242;20.940;2024-03-22T13:19:06;11.10;99.90
33594;DHT22;19920;52.242;20.940;2024-03-22T13:21:37;11.10;99.90
33594;DHT22;19920;52.242;20.940;2024-03-22T13:24:03;11.00;99.90
33594;DHT22;19920;52.242;20.940;2024-03-22T13:26:28;10.90;99.90
33594;DHT22;19920;52.242;20.940;2024-03-22T13:28:54;10.90;99.90
33594;DHT22;19920;52.242;20.940;2024-03-22T13:31:19;11.20;99.90
33594;DHT22;19920;52.242;20.940;2024-03-22T13:33:45;11.30;99.90
33594;DHT22;19920;52.242;20.940;2024-03-22T13:36:12;11.40;99.90
33594;DHT22;19920;52.242;20.940;2024-03-22T13:38:38;11.50;99.90
33594;DHT22;19920;52.242;20.940;2024-03-22T13:41:03;11.50;99.90
33594;DHT22;19920;52.242;20.940;2024-03-22T13:43:31;11.50;99.90
33594;DHT22;19920;52.242;20.940;2024-03-22T13:45:56;11.70;99.90
33594;DHT22;19920;52.242;20.940;2024-03-22T13:48:23;11.80;99.90
33594;DHT22;19920;52.242;20.940;2024-03-22T13:50:50;11.90;99.90
33594;DHT22;19920;52.242;20.940;2024-03-22T13:53:16;12.00;99.90
33594;DHT22;19920;52.242;20.940;2024-03-22T13:55:42;12.10;99.90
33594;DHT22;19920;52.242;20.940;2024-03-22T13:58:07;12.20;99.90
33594;DHT22;19920;52.242;20.940;2024-03-22T14:00:33;12.00;99.90
33594;DHT22;19920;52.242;20.940;2024-03-22T14:02:59;12.00;99.90
33594;DHT22;19920;52.242;20.940;2024-03-22T14:05:26;11.80;99.90
33594;DHT22;19920;52.242;20.940;2024-03-22T14:07:52;11.80;99.90
33594;DHT22;19920;52.242;20.940;2024-03-22T14:10:17;11.70;99.90
33594;DHT22;19920;52.242;20.940;2024-03-22T14:12:45;11.60;99.90
33594;DHT22;19920;52.242;20.940;2024-03-22T14:15:10;11.60;99.90
33594;DHT22;19920;52.242;20.940;2024-03-22T14:17:36;11.60;99.90
33594;DHT22;19920;52.242;20.940;2024-03-22T14:20:01;11.60;99.90
33594;DHT22;19920;52.242;20.940;2024-03-22T14:22:31;11.50;99.90
33594;DHT22;19920;52.242;20.940;2024-03-22T14:24:56;11.60;99.90
33594;DHT22;19920;52.242;20.940;2024-03-22T14:27:22;11.60;99.90
33594;DHT22;19920;52.242;20.940;2024-03-22T14:29:47;11.60;99.90
33594;DHT22;19920;52.242;20.940;2024-03-22T14:32:13;11.60;99.90
33594;DHT22;19920;52.242;20.940;2024-03-22T14:34:38;11.50;99.90
33594;DHT22;19920;52.242;20.940;2024-03-22T14:37:04;11.60;99.90
33594;DHT22;19920;52.242;20.940;2024-03-22T14:39:29;11.50;99.90
33594;DHT22;19920;52.242;20.940;2024-03-22T14:41:55;11.50;99.90
33594;DHT22;19920;52.242;20.940;2024-03-22T14:44:20;11.50;99.90
33594;DHT22;19920;52.242;20.940;2024-03-22T14:46:46;11.50;99.90
33594;DHT22;19920;52.242;20.940;2024-03-22T14:49:11;11.50;99.90
33594;DHT22;19920;52.242;20.940;2024-03-22T14:51:37;11.40;99.90
33594;DHT22;19920;52.242;20.940;2024-03-22T14:54:02;11.40;99.90
33594;DHT22;19920;52.242;20.940;2024-03-22T14:56:30;11.50;99.90
33594;DHT22;19920;52.242;20.940;2024-03-22T14:58:55;11.50;99.90
33594;DHT22;19920;52.242;20.940;2024-03-22T15:01:22;11.40;99.90
33594;DHT22;19920;52.242;20.940;2024-03-22T15:03:48;11.50;99.90
33594;DHT22;19920;52.242;20.940;2024-03-22T15:06:15;11.40;99.90
33594;DHT22;19920;52.242;20.940;2024-03-22T15:08:41;11.30;99.90
33594;DHT22;19920;52.242;20.940;2024-03-22T15:11:06;11.30;99.90
33594;DHT22;19920;52.242;20.940;2024-03-22T15:13:32;11.30;99.90
33594;DHT22;19920;52.242;20.940;2024-03-22T15:15:58;11.30;99.90
33594;DHT22;19920;52.242;20.940;2024-03-22T15:18:25;11.30;99.90